岡山グライダークラブ活動状況掲示板

岡山グライダークラブ
岡山市浦安南町639-1 岡南飛行場
 使用機:シャイベ式 SF25C型 ファルケ   JA2330
      ヴァレンティン式17E型 タイフーン  JA2342
 練習日:毎日曜日  クラブルーム:電話 086-265-1810
この掲示板は岡山グライダークラブの活動状況をお知らせする掲示板です。
!!!この掲示板は投稿規制をしています。!!!
クラブ関連各種情報は 岡山グライダークラブクラブルーム      を       .
  ブリーフイング情報は  岡山グライダークラブブリーフィングルーム  をご覧下さい。 .
※写真はクリックすると拡大して見ることが出来ます。
岡南飛行場へのアクセス等は 岡南飛行場管理事務所 をご覧ください。
クラブの ホームページ ができました。

!!!緊急事態宣言、まん延防止等重点措置の解除に伴い、見学者等の受入を再開します。なお、来所の際には、こちらを順守願います。

 
09月05日
by OGC at 2021/9/5(日) 11:06:07 No.20210905105916  削除コメント
1026 x 767 x 52,606バイト <この画像は大きいので別画面で表示します>
No.1

09月05日
本日のリモート参加者
  会員       9名
  その他      0名


@本日の様子






METAR
RJBK 050000Z 23003KT 200V270 30KM FEW020CU SCT080AC BKN150AC 24/21 Q1015 A2999
RJOB 050000Z VRB02KT 9999 FEW020 BKN/// 23/19 Q1016
RJOT 050000Z VRB03KT 9999 FEW010 SCT045 BKN180 24/21 Q1016
RJOA 050000Z 34004KT 310V050 9999 FEW025 SCT035 BKN/// 23/18 Q1017

TAF
RJOB 042307Z 0500/0606 35005KT 9999 FEW020 SCT040
    BECMG 0502/0504 22005KT
       BECMG 0509/0511 35005KT
RJOT 042307Z 0500/0606 04004KT 9999 FEW025 SCT035
RJOA 042307Z 0500/0606 28004KT 9999 FEW025
       BECMG 0521/0600 15005KT

岡山県の緊急事態宣言を受け、9月12日まで訓練活動自粛のため、本日、第16回リモートブリーフィングを開催しました。


集合 10:00 解散    10:45

本日のフライトはありません。

    << 戻る || ホームページ || 最新の掲示板へ